Akebono — JG5644 — position and weather

sailwx.info

Track history (hours):
 
Tides and Currents Weather Stations Pressure Air Temp Water Temp Dewpoint Dewpoint Depression Visibility Wind Speed Wind Dir Waves Ship Positions

Akebono

Last reported at 2015-Jul-28 21:33 UTC. Time now 2015-Jul-28 21:44 UTC.
Position N 35°26' E 139°42'.

Length 33 m; draft 4.4 m.

Type: Tug. MMSI: 431000233.

Date/timePositionNaut miles runAvg speedWind from/ knotsBaromVisibWave heightAir tempDewpointWater temp
2015-Jul-28 21:33N 35°26' E 139°42'1 0.9
2015-Jul-28 20:34N 35°27' E 139°41'1 0.9
2015-Jul-28 19:33N 35°26' E 139°42'0 0.0
2015-Jul-28 18:33N 35°26' E 139°42'2 2.4
2015-Jul-28 17:33N 35°24' E 139°41'1 0.8
2015-Jul-28 16:33N 35°23' E 139°40'0 0.0
2015-Jul-28 15:33N 35°23' E 139°40'0 0.0
2015-Jul-28 14:33N 35°23' E 139°40'0 0.0
2015-Jul-28 13:33N 35°23' E 139°40'3 3.2
2015-Jul-28 12:33N 35°26' E 139°42'2 2.4
2015-Jul-28 11:34N 35°24' E 139°42'2 2.0
2015-Jul-28 10:34N 35°26' E 139°42'0 0.0
2015-Jul-28 09:34N 35°26' E 139°42'0 0.0
2015-Jul-28 08:33N 35°26' E 139°42'2 1.6
2015-Jul-28 07:33N 35°27' E 139°41'2 2.2
2015-Jul-28 06:33N 35°27' E 139°38'0 0.0
2015-Jul-28 05:33N 35°27' E 139°38'4 4.5
2015-Jul-28 04:34N 35°23' E 139°41'3 2.6
2015-Jul-28 03:33N 35°24' E 139°38'3 2.5
2015-Jul-28 02:33N 35°23' E 139°41'3 2.6
2015-Jul-28 01:33N 35°24' E 139°38'1 1.4
2015-Jul-28 00:34N 35°23' E 139°40'0 0.4
2015-Jul-27 23:34N 35°23' E 139°40'6 6.4
2015-Jul-27 22:33N 35°29' E 139°43'4 4.3
2015-Jul-27 21:33N 35°27' E 139°38'0 0.0
2015-Jul-27 08:33N 35°27' E 139°38'5 4.7
2015-Jul-27 07:34N 35°26' E 139°44'5 4.8
2015-Jul-27 06:33N 35°30' E 139°47'7 7.1
2015-Jul-27 05:33N 35°27' E 139°38'0 0.1
2015-Jul-27 04:33N 35°27' E 139°38'0 0.0
2015-Jul-27 03:33N 35°27' E 139°38'0 0.0
2015-Jul-27 02:33N 35°27' E 139°38'0 0.0
2015-Jul-27 01:33N 35°27' E 139°38'0 0.0
2015-Jul-27 00:33N 35°27' E 139°38'0 0.0
2015-Jul-26 23:33N 35°27' E 139°38'5 4.6
2015-Jul-26 22:33N 35°26' E 139°44'2 2.0
2015-Jul-26 21:33N 35°28' E 139°43'3 3.4
2015-Jul-26 20:33N 35°27' E 139°38'1 0.0
2015-Jul-25 09:33N 35°28' E 139°40'3 3.1
2015-Jul-25 08:33N 35°27' E 139°43'1 1.4
2015-Jul-25 07:33N 35°27' E 139°42'0 0.0
2015-Jul-25 06:33N 35°27' E 139°42'0 0.0
2015-Jul-25 05:33N 35°27' E 139°42'0 0.0
2015-Jul-25 04:33N 35°27' E 139°42'1 1.3
2015-Jul-25 03:34N 35°27' E 139°40'2 1.7
2015-Jul-25 02:33N 35°27' E 139°38'0 0.0
2015-Jul-25 01:33N 35°27' E 139°38'0 0.0
2015-Jul-25 00:33N 35°27' E 139°38'0 0.0
2015-Jul-24 23:33N 35°27' E 139°38'0 0.0
2015-Jul-24 22:33N 35°27' E 139°38'0 0.0
2015-Jul-23 23:09N 35°27' E 139°38'3 4.4
2015-Jul-23 22:33N 35°25' E 139°41'1 0.9
2015-Jul-23 21:33N 35°25' E 139°42'0 0.0
2015-Jul-23 20:33N 35°25' E 139°42'1 0.8
2015-Jul-23 19:33N 35°26' E 139°42'0 0.0
2015-Jul-23 18:33N 35°26' E 139°42'0 0.0
2015-Jul-23 17:33N 35°26' E 139°42'0 0.0
2015-Jul-23 16:33N 35°26' E 139°42'2 2.2
2015-Jul-23 15:33N 35°24' E 139°41'2 1.6
2015-Jul-23 14:33N 35°26' E 139°42'0 0.0
2015-Jul-23 13:33N 35°25' E 139°42'2 1.7
2015-Jul-23 12:33N 35°27' E 139°40'1 1.2
2015-Jul-23 11:33N 35°26' E 139°42'0 0.3
2015-Jul-23 10:33N 35°26' E 139°42'2 1.9
2015-Jul-23 09:33N 35°24' E 139°42'4 4.0
2015-Jul-23 08:33N 35°28' E 139°42'1 0.7
2015-Jul-23 07:33N 35°28' E 139°41'2 2.4
2015-Jul-23 06:34N 35°27' E 139°38'0 0.0
2015-Jul-23 05:33N 35°27' E 139°38'0 0.0
2015-Jul-23 04:34N 35°27' E 139°38'0 0.0
2015-Jul-23 03:34N 35°27' E 139°38'0 0.0
2015-Jul-23 02:34N 35°27' E 139°38'0 0.0
2015-Jul-23 01:33N 35°27' E 139°38'0 0.0
2015-Jul-23 00:33N 35°27' E 139°38'4 4.1
2015-Jul-22 23:34N 35°28' E 139°43'3 2.7
2015-Jul-22 22:33N 35°30' E 139°46'1 0.6
2015-Jul-22 21:33N 35°29' E 139°47'2 2.1
2015-Jul-22 20:34N 35°28' E 139°45'5 5.2
2015-Jul-22 19:33N 35°27' E 139°38'0 0.0
2015-Jul-22 07:07N 35°27' E 139°38'0 0.0
2015-Jul-22 06:33N 35°27' E 139°38'0 0.0
2015-Jul-22 05:34N 35°27' E 139°38'0 0.0
2015-Jul-22 04:33N 35°27' E 139°38'0 0.0
2015-Jul-22 03:33N 35°27' E 139°38'2 1.6
2015-Jul-22 02:34N 35°27' E 139°40'4 3.8
2015-Jul-22 01:33N 35°24' E 139°38'1 1.5
2015-Jul-22 00:33N 35°23' E 139°40'1 0.8
2015-Jul-21 23:33N 35°23' E 139°41'5 4.7
2015-Jul-21 22:33N 35°28' E 139°41'3 2.6
2015-Jul-21 21:33N 35°27' E 139°44'4 4.4
2015-Jul-21 20:33N 35°27' E 139°38'0 0.0
2015-Jul-21 10:30N 35°27' E 139°38'2 2.4
2015-Jul-21 09:33N 35°27' E 139°41'2 2.2
2015-Jul-21 08:31N 35°27' E 139°38'1 0.7
2015-Jul-21 07:34N 35°28' E 139°39'1 0.8
2015-Jul-21 06:34N 35°27' E 139°39'0 0.0
2015-Jul-21 05:34N 35°27' E 139°39'0 0.0
2015-Jul-21 04:34N 35°27' E 139°39'0 0.5
2015-Jul-21 03:34N 35°27' E 139°38'0 0.0
2015-Jul-21 02:34N 35°27' E 139°38'0 0.1
2015-Jul-21 01:33N 35°27' E 139°38'0 0.3
2015-Jul-21 00:33N 35°28' E 139°39'0 0.3
2015-Jul-20 23:33N 35°27' E 139°38'0 0.0
2015-Jul-20 22:33N 35°27' E 139°38'0 0.0
2015-Jul-19 22:33N 35°27' E 139°38'1 0.9
2015-Jul-19 21:33N 35°27' E 139°40'2 1.6
2015-Jul-19 20:34N 35°28' E 139°41'2 1.7
2015-Jul-19 19:33N 35°27' E 139°39'0 0.0
2015-Jul-19 18:34N 35°27' E 139°39'0 0.0
2015-Jul-19 17:33N 35°27' E 139°39'0 0.0
2015-Jul-19 16:34N 35°27' E 139°39'0 0.0
2015-Jul-19 15:34N 35°27' E 139°39'0 0.0
2015-Jul-19 14:33N 35°27' E 139°39'0 0.0
2015-Jul-19 13:34N 35°27' E 139°39'0 0.0
2015-Jul-19 12:33N 35°27' E 139°39'0 0.3
2015-Jul-19 11:34N 35°27' E 139°39'2 1.6
2015-Jul-19 10:33N 35°27' E 139°41'1 1.3
2015-Jul-19 09:34N 35°27' E 139°40'0 0.2
2015-Jul-19 08:34N 35°27' E 139°39'0 0.0
2015-Jul-19 07:34N 35°27' E 139°39'2 2.1
2015-Jul-19 06:34N 35°28' E 139°42'0 0.4
2015-Jul-19 05:33N 35°28' E 139°41'2 1.7
2015-Jul-19 04:33N 35°27' E 139°39'0 0.0
2015-Jul-19 00:33N 35°27' E 139°39'3 3.5
2015-Jul-18 23:33N 35°24' E 139°42'2 1.6
2015-Jul-18 22:34N 35°23' E 139°41'  
Track history (hours):
 
Tides and Currents Weather Stations Pressure Air Temp Water Temp Dewpoint Dewpoint Depression Visibility Wind Speed Wind Dir Waves Ship Positions

Akebono

Last reported at 2015-Jul-28 21:33 UTC. Time now 2015-Jul-28 21:44 UTC.
Position N 35°26' E 139°42'.

Length 33 m; draft 4.4 m.

Type: Tug. MMSI: 431000233.

Date/timePositionNaut miles runAvg speedWind from/ knotsBaromVisibWave heightAir tempDewpointWater temp
2015-Jul-28 21:33N 35°26' E 139°42'1 0.9
2015-Jul-28 20:34N 35°27' E 139°41'1 0.9
2015-Jul-28 19:33N 35°26' E 139°42'0 0.0
2015-Jul-28 18:33N 35°26' E 139°42'2 2.4
2015-Jul-28 17:33N 35°24' E 139°41'1 0.8
2015-Jul-28 16:33N 35°23' E 139°40'0 0.0
2015-Jul-28 15:33N 35°23' E 139°40'0 0.0
2015-Jul-28 14:33N 35°23' E 139°40'0 0.0
2015-Jul-28 13:33N 35°23' E 139°40'3 3.2
2015-Jul-28 12:33N 35°26' E 139°42'2 2.4
2015-Jul-28 11:34N 35°24' E 139°42'2 2.0
2015-Jul-28 10:34N 35°26' E 139°42'0 0.0
2015-Jul-28 09:34N 35°26' E 139°42'0 0.0
2015-Jul-28 08:33N 35°26' E 139°42'2 1.6
2015-Jul-28 07:33N 35°27' E 139°41'2 2.2
2015-Jul-28 06:33N 35°27' E 139°38'0 0.0
2015-Jul-28 05:33N 35°27' E 139°38'4 4.5
2015-Jul-28 04:34N 35°23' E 139°41'3 2.6
2015-Jul-28 03:33N 35°24' E 139°38'3 2.5
2015-Jul-28 02:33N 35°23' E 139°41'3 2.6
2015-Jul-28 01:33N 35°24' E 139°38'1 1.4
2015-Jul-28 00:34N 35°23' E 139°40'0 0.4
2015-Jul-27 23:34N 35°23' E 139°40'6 6.4
2015-Jul-27 22:33N 35°29' E 139°43'4 4.3
2015-Jul-27 21:33N 35°27' E 139°38'0 0.0
2015-Jul-27 08:33N 35°27' E 139°38'5 4.7
2015-Jul-27 07:34N 35°26' E 139°44'5 4.8
2015-Jul-27 06:33N 35°30' E 139°47'7 7.1
2015-Jul-27 05:33N 35°27' E 139°38'0 0.1
2015-Jul-27 04:33N 35°27' E 139°38'0 0.0
2015-Jul-27 03:33N 35°27' E 139°38'0 0.0
2015-Jul-27 02:33N 35°27' E 139°38'0 0.0
2015-Jul-27 01:33N 35°27' E 139°38'0 0.0
2015-Jul-27 00:33N 35°27' E 139°38'0 0.0
2015-Jul-26 23:33N 35°27' E 139°38'5 4.6
2015-Jul-26 22:33N 35°26' E 139°44'2 2.0
2015-Jul-26 21:33N 35°28' E 139°43'3 3.4
2015-Jul-26 20:33N 35°27' E 139°38'1 0.0
2015-Jul-25 09:33N 35°28' E 139°40'3 3.1
2015-Jul-25 08:33N 35°27' E 139°43'1 1.4
2015-Jul-25 07:33N 35°27' E 139°42'0 0.0
2015-Jul-25 06:33N 35°27' E 139°42'0 0.0
2015-Jul-25 05:33N 35°27' E 139°42'0 0.0
2015-Jul-25 04:33N 35°27' E 139°42'1 1.3
2015-Jul-25 03:34N 35°27' E 139°40'2 1.7
2015-Jul-25 02:33N 35°27' E 139°38'0 0.0
2015-Jul-25 01:33N 35°27' E 139°38'0 0.0
2015-Jul-25 00:33N 35°27' E 139°38'0 0.0
2015-Jul-24 23:33N 35°27' E 139°38'0 0.0
2015-Jul-24 22:33N 35°27' E 139°38'0 0.0
2015-Jul-23 23:09N 35°27' E 139°38'3 4.4
2015-Jul-23 22:33N 35°25' E 139°41'1 0.9
2015-Jul-23 21:33N 35°25' E 139°42'0 0.0
2015-Jul-23 20:33N 35°25' E 139°42'1 0.8
2015-Jul-23 19:33N 35°26' E 139°42'0 0.0
2015-Jul-23 18:33N 35°26' E 139°42'0 0.0
2015-Jul-23 17:33N 35°26' E 139°42'0 0.0
2015-Jul-23 16:33N 35°26' E 139°42'2 2.2
2015-Jul-23 15:33N 35°24' E 139°41'2 1.6
2015-Jul-23 14:33N 35°26' E 139°42'0 0.0
2015-Jul-23 13:33N 35°25' E 139°42'2 1.7
2015-Jul-23 12:33N 35°27' E 139°40'1 1.2
2015-Jul-23 11:33N 35°26' E 139°42'0 0.3
2015-Jul-23 10:33N 35°26' E 139°42'2 1.9
2015-Jul-23 09:33N 35°24' E 139°42'4 4.0
2015-Jul-23 08:33N 35°28' E 139°42'1 0.7
2015-Jul-23 07:33N 35°28' E 139°41'2 2.4
2015-Jul-23 06:34N 35°27' E 139°38'0 0.0
2015-Jul-23 05:33N 35°27' E 139°38'0 0.0
2015-Jul-23 04:34N 35°27' E 139°38'0 0.0
2015-Jul-23 03:34N 35°27' E 139°38'0 0.0
2015-Jul-23 02:34N 35°27' E 139°38'0 0.0
2015-Jul-23 01:33N 35°27' E 139°38'0 0.0
2015-Jul-23 00:33N 35°27' E 139°38'4 4.1
2015-Jul-22 23:34N 35°28' E 139°43'3 2.7
2015-Jul-22 22:33N 35°30' E 139°46'1 0.6
2015-Jul-22 21:33N 35°29' E 139°47'2 2.1
2015-Jul-22 20:34N 35°28' E 139°45'5 5.2
2015-Jul-22 19:33N 35°27' E 139°38'0 0.0
2015-Jul-22 07:07N 35°27' E 139°38'0 0.0
2015-Jul-22 06:33N 35°27' E 139°38'0 0.0
2015-Jul-22 05:34N 35°27' E 139°38'0 0.0
2015-Jul-22 04:33N 35°27' E 139°38'0 0.0
2015-Jul-22 03:33N 35°27' E 139°38'2 1.6
2015-Jul-22 02:34N 35°27' E 139°40'4 3.8
2015-Jul-22 01:33N 35°24' E 139°38'1 1.5
2015-Jul-22 00:33N 35°23' E 139°40'1 0.8
2015-Jul-21 23:33N 35°23' E 139°41'5 4.7
2015-Jul-21 22:33N 35°28' E 139°41'3 2.6
2015-Jul-21 21:33N 35°27' E 139°44'4 4.4
2015-Jul-21 20:33N 35°27' E 139°38'0 0.0
2015-Jul-21 10:30N 35°27' E 139°38'2 2.4
2015-Jul-21 09:33N 35°27' E 139°41'2 2.2
2015-Jul-21 08:31N 35°27' E 139°38'1 0.7
2015-Jul-21 07:34N 35°28' E 139°39'1 0.8
2015-Jul-21 06:34N 35°27' E 139°39'0 0.0
2015-Jul-21 05:34N 35°27' E 139°39'0 0.0
2015-Jul-21 04:34N 35°27' E 139°39'0 0.5
2015-Jul-21 03:34N 35°27' E 139°38'0 0.0
2015-Jul-21 02:34N 35°27' E 139°38'0 0.1
2015-Jul-21 01:33N 35°27' E 139°38'0 0.3
2015-Jul-21 00:33N 35°28' E 139°39'0 0.3
2015-Jul-20 23:33N 35°27' E 139°38'0 0.0
2015-Jul-20 22:33N 35°27' E 139°38'0 0.0
2015-Jul-19 22:33N 35°27' E 139°38'1 0.9
2015-Jul-19 21:33N 35°27' E 139°40'2 1.6
2015-Jul-19 20:34N 35°28' E 139°41'2 1.7
2015-Jul-19 19:33N 35°27' E 139°39'0 0.0
2015-Jul-19 18:34N 35°27' E 139°39'0 0.0
2015-Jul-19 17:33N 35°27' E 139°39'0 0.0
2015-Jul-19 16:34N 35°27' E 139°39'0 0.0
2015-Jul-19 15:34N 35°27' E 139°39'0 0.0
2015-Jul-19 14:33N 35°27' E 139°39'0 0.0
2015-Jul-19 13:34N 35°27' E 139°39'0 0.0
2015-Jul-19 12:33N 35°27' E 139°39'0 0.3
2015-Jul-19 11:34N 35°27' E 139°39'2 1.6
2015-Jul-19 10:33N 35°27' E 139°41'1 1.3
2015-Jul-19 09:34N 35°27' E 139°40'0 0.2
2015-Jul-19 08:34N 35°27' E 139°39'0 0.0
2015-Jul-19 07:34N 35°27' E 139°39'2 2.1
2015-Jul-19 06:34N 35°28' E 139°42'0 0.4
2015-Jul-19 05:33N 35°28' E 139°41'2 1.7
2015-Jul-19 04:33N 35°27' E 139°39'0 0.0
2015-Jul-19 00:33N 35°27' E 139°39'3 3.5
2015-Jul-18 23:33N 35°24' E 139°42'2 1.6
2015-Jul-18 22:34N 35°23' E 139°41'  

Dump ship's entire track history